sensor_id;sensor_type;location;lat;lon;timestamp;P1;durP1;ratioP1;P2;durP2;ratioP2
19651;SDS011;9974;52.146;14.668;2022-09-11T00:00:41;5.75;;;2.25;;
19651;SDS011;9974;52.146;14.668;2022-09-11T00:03:07;3.85;;;2.30;;
19651;SDS011;9974;52.146;14.668;2022-09-11T00:05:37;3.33;;;2.10;;
19651;SDS011;9974;52.146;14.668;2022-09-11T00:08:05;2.53;;;2.25;;
19651;SDS011;9974;52.146;14.668;2022-09-11T00:10:35;4.18;;;2.50;;
19651;SDS011;9974;52.146;14.668;2022-09-11T00:13:04;4.13;;;2.50;;
19651;SDS011;9974;52.146;14.668;2022-09-11T00:15:35;3.63;;;2.70;;
19651;SDS011;9974;52.146;14.668;2022-09-11T00:18:02;3.60;;;2.10;;
19651;SDS011;9974;52.146;14.668;2022-09-11T00:20:30;5.68;;;2.10;;
19651;SDS011;9974;52.146;14.668;2022-09-11T00:22:58;9.05;;;2.38;;
19651;SDS011;9974;52.146;14.668;2022-09-11T00:25:29;5.05;;;2.10;;
19651;SDS011;9974;52.146;14.668;2022-09-11T00:27:58;3.10;;;2.30;;
19651;SDS011;9974;52.146;14.668;2022-09-11T00:30:25;5.72;;;2.42;;
19651;SDS011;9974;52.146;14.668;2022-09-11T00:32:51;4.03;;;2.20;;
19651;SDS011;9974;52.146;14.668;2022-09-11T00:35:17;3.97;;;1.95;;
19651;SDS011;9974;52.146;14.668;2022-09-11T00:37:43;5.35;;;1.88;;
19651;SDS011;9974;52.146;14.668;2022-09-11T00:40:09;4.05;;;2.38;;
19651;SDS011;9974;52.146;14.668;2022-09-11T00:42:35;3.05;;;2.00;;
19651;SDS011;9974;52.146;14.668;2022-09-11T00:45:03;5.22;;;2.03;;
19651;SDS011;9974;52.146;14.668;2022-09-11T00:47:31;3.60;;;2.22;;
19651;SDS011;9974;52.146;14.668;2022-09-11T00:50:21;4.20;;;2.13;;
19651;SDS011;9974;52.146;14.668;2022-09-11T00:52:50;3.60;;;2.30;;
19651;SDS011;9974;52.146;14.668;2022-09-11T00:55:21;3.13;;;1.95;;
19651;SDS011;9974;52.146;14.668;2022-09-11T00:57:53;2.67;;;1.70;;
19651;SDS011;9974;52.146;14.668;2022-09-11T01:00:23;3.70;;;2.10;;
19651;SDS011;9974;52.146;14.668;2022-09-11T01:02:49;2.90;;;1.38;;
19651;SDS011;9974;52.146;14.668;2022-09-11T01:05:17;2.45;;;1.60;;
19651;SDS011;9974;52.146;14.668;2022-09-11T01:07:46;4.03;;;1.60;;
19651;SDS011;9974;52.146;14.668;2022-09-11T01:10:18;4.00;;;1.40;;
19651;SDS011;9974;52.146;14.668;2022-09-11T01:15:22;2.38;;;1.65;;
19651;SDS011;9974;52.146;14.668;2022-09-11T01:23:44;2.83;;;1.67;;
19651;SDS011;9974;52.146;14.668;2022-09-11T01:26:37;2.50;;;1.90;;
19651;SDS011;9974;52.146;14.668;2022-09-11T01:29:20;4.20;;;3.10;;
19651;SDS011;9974;52.146;14.668;2022-09-11T01:31:56;2.72;;;1.98;;
19651;SDS011;9974;52.146;14.668;2022-09-11T01:34:33;3.70;;;1.85;;
19651;SDS011;9974;52.146;14.668;2022-09-11T01:37:23;3.10;;;1.98;;
19651;SDS011;9974;52.146;14.668;2022-09-11T01:40:32;5.10;;;2.20;;
19651;SDS011;9974;52.146;14.668;2022-09-11T01:43:14;5.90;;;2.50;;
19651;SDS011;9974;52.146;14.668;2022-09-11T01:45:46;4.40;;;2.33;;
19651;SDS011;9974;52.146;14.668;2022-09-11T01:48:17;4.00;;;2.50;;
19651;SDS011;9974;52.146;14.668;2022-09-11T01:50:49;3.05;;;1.98;;
19651;SDS011;9974;52.146;14.668;2022-09-11T01:53:18;3.75;;;2.42;;
19651;SDS011;9974;52.146;14.668;2022-09-11T01:55:48;2.45;;;2.20;;
19651;SDS011;9974;52.146;14.668;2022-09-11T01:58:30;5.95;;;2.30;;
19651;SDS011;9974;52.146;14.668;2022-09-11T02:01:05;4.38;;;2.55;;
19651;SDS011;9974;52.146;14.668;2022-09-11T02:03:37;4.70;;;2.50;;
19651;SDS011;9974;52.146;14.668;2022-09-11T02:06:15;6.43;;;2.90;;
19651;SDS011;9974;52.146;14.668;2022-09-11T02:09:08;5.65;;;2.63;;
19651;SDS011;9974;52.146;14.668;2022-09-11T02:11:39;4.55;;;2.47;;
19651;SDS011;9974;52.146;14.668;2022-09-11T02:14:27;6.47;;;2.63;;
19651;SDS011;9974;52.146;14.668;2022-09-11T02:20:00;5.35;;;2.60;;
19651;SDS011;9974;52.146;14.668;2022-09-11T02:22:27;4.80;;;2.92;;
19651;SDS011;9974;52.146;14.668;2022-09-11T02:24:54;6.53;;;3.17;;
19651;SDS011;9974;52.146;14.668;2022-09-11T02:27:25;9.63;;;2.95;;
19651;SDS011;9974;52.146;14.668;2022-09-11T02:29:52;4.80;;;3.17;;
19651;SDS011;9974;52.146;14.668;2022-09-11T02:32:20;7.57;;;3.10;;
19651;SDS011;9974;52.146;14.668;2022-09-11T02:34:46;6.50;;;3.65;;
19651;SDS011;9974;52.146;14.668;2022-09-11T02:40:04;6.82;;;4.05;;
19651;SDS011;9974;52.146;14.668;2022-09-11T02:42:51;6.13;;;3.50;;
19651;SDS011;9974;52.146;14.668;2022-09-11T02:48:40;4.95;;;3.60;;
19651;SDS011;9974;52.146;14.668;2022-09-11T02:56:56;5.85;;;3.70;;
19651;SDS011;9974;52.146;14.668;2022-09-11T02:59:32;13.40;;;4.70;;
19651;SDS011;9974;52.146;14.668;2022-09-11T03:02:06;10.82;;;3.95;;
19651;SDS011;9974;52.146;14.668;2022-09-11T03:04:36;8.07;;;4.43;;
19651;SDS011;9974;52.146;14.668;2022-09-11T03:07:02;14.57;;;4.30;;
19651;SDS011;9974;52.146;14.668;2022-09-11T03:09:29;11.27;;;4.32;;
19651;SDS011;9974;52.146;14.668;2022-09-11T03:11:54;16.75;;;4.13;;
19651;SDS011;9974;52.146;14.668;2022-09-11T03:14:20;7.95;;;4.07;;
19651;SDS011;9974;52.146;14.668;2022-09-11T03:16:46;7.70;;;3.60;;
19651;SDS011;9974;52.146;14.668;2022-09-11T03:19:14;11.43;;;4.72;;
19651;SDS011;9974;52.146;14.668;2022-09-11T03:21:40;11.65;;;4.57;;
19651;SDS011;9974;52.146;14.668;2022-09-11T03:24:06;14.38;;;4.50;;
19651;SDS011;9974;52.146;14.668;2022-09-11T03:26:33;11.93;;;4.35;;
19651;SDS011;9974;52.146;14.668;2022-09-11T03:29:00;17.42;;;5.40;;
19651;SDS011;9974;52.146;14.668;2022-09-11T03:31:27;12.18;;;4.43;;
19651;SDS011;9974;52.146;14.668;2022-09-11T03:33:53;8.20;;;4.53;;
19651;SDS011;9974;52.146;14.668;2022-09-11T03:36:19;16.42;;;4.85;;
19651;SDS011;9974;52.146;14.668;2022-09-11T03:38:45;8.77;;;4.72;;
19651;SDS011;9974;52.146;14.668;2022-09-11T03:41:12;9.32;;;4.57;;
19651;SDS011;9974;52.146;14.668;2022-09-11T03:43:38;14.93;;;5.20;;
19651;SDS011;9974;52.146;14.668;2022-09-11T03:46:04;6.82;;;4.60;;
19651;SDS011;9974;52.146;14.668;2022-09-11T03:48:31;11.48;;;4.65;;
19651;SDS011;9974;52.146;14.668;2022-09-11T03:50:57;6.85;;;4.60;;
19651;SDS011;9974;52.146;14.668;2022-09-11T03:53:23;6.80;;;4.35;;
19651;SDS011;9974;52.146;14.668;2022-09-11T03:55:49;9.07;;;4.85;;
19651;SDS011;9974;52.146;14.668;2022-09-11T03:58:15;6.00;;;4.22;;
19651;SDS011;9974;52.146;14.668;2022-09-11T04:00:45;5.78;;;4.47;;
19651;SDS011;9974;52.146;14.668;2022-09-11T04:03:11;8.98;;;5.20;;
19651;SDS011;9974;52.146;14.668;2022-09-11T04:05:39;6.53;;;4.50;;
19651;SDS011;9974;52.146;14.668;2022-09-11T04:08:09;7.65;;;4.15;;
19651;SDS011;9974;52.146;14.668;2022-09-11T04:10:37;7.30;;;3.95;;
19651;SDS011;9974;52.146;14.668;2022-09-11T04:13:03;7.82;;;5.22;;
19651;SDS011;9974;52.146;14.668;2022-09-11T04:15:29;9.40;;;4.85;;
19651;SDS011;9974;52.146;14.668;2022-09-11T04:17:56;7.30;;;5.05;;
19651;SDS011;9974;52.146;14.668;2022-09-11T04:20:22;8.68;;;4.57;;
19651;SDS011;9974;52.146;14.668;2022-09-11T04:22:48;9.55;;;5.05;;
19651;SDS011;9974;52.146;14.668;2022-09-11T04:25:15;8.60;;;5.28;;
19651;SDS011;9974;52.146;14.668;2022-09-11T04:27:41;12.73;;;7.30;;
19651;SDS011;9974;52.146;14.668;2022-09-11T04:30:07;7.78;;;5.13;;
19651;SDS011;9974;52.146;14.668;2022-09-11T04:32:33;7.22;;;5.13;;
19651;SDS011;9974;52.146;14.668;2022-09-11T04:34:59;8.95;;;6.00;;
19651;SDS011;9974;52.146;14.668;2022-09-11T04:37:26;9.85;;;5.97;;
19651;SDS011;9974;52.146;14.668;2022-09-11T04:39:52;9.30;;;7.15;;
19651;SDS011;9974;52.146;14.668;2022-09-11T04:42:18;11.02;;;7.93;;
19651;SDS011;9974;52.146;14.668;2022-09-11T04:44:44;8.98;;;7.57;;
19651;SDS011;9974;52.146;14.668;2022-09-11T04:47:12;10.65;;;7.35;;
19651;SDS011;9974;52.146;14.668;2022-09-11T04:49:40;11.55;;;8.82;;
19651;SDS011;9974;52.146;14.668;2022-09-11T04:52:06;10.52;;;7.57;;
19651;SDS011;9974;52.146;14.668;2022-09-11T04:54:31;14.98;;;8.52;;
19651;SDS011;9974;52.146;14.668;2022-09-11T04:56:58;17.55;;;8.63;;
19651;SDS011;9974;52.146;14.668;2022-09-11T04:59:26;13.07;;;10.45;;
19651;SDS011;9974;52.146;14.668;2022-09-11T05:01:52;16.25;;;9.65;;
19651;SDS011;9974;52.146;14.668;2022-09-11T05:04:18;14.25;;;10.25;;
19651;SDS011;9974;52.146;14.668;2022-09-11T05:06:44;16.50;;;10.48;;
19651;SDS011;9974;52.146;14.668;2022-09-11T05:09:12;19.60;;;10.85;;
19651;SDS011;9974;52.146;14.668;2022-09-11T05:11:39;20.20;;;12.38;;
19651;SDS011;9974;52.146;14.668;2022-09-11T05:14:06;25.80;;;11.75;;
19651;SDS011;9974;52.146;14.668;2022-09-11T05:16:32;21.83;;;12.73;;
19651;SDS011;9974;52.146;14.668;2022-09-11T05:18:59;22.17;;;11.88;;
19651;SDS011;9974;52.146;14.668;2022-09-11T05:21:28;18.73;;;12.25;;
19651;SDS011;9974;52.146;14.668;2022-09-11T05:23:56;20.33;;;11.20;;
19651;SDS011;9974;52.146;14.668;2022-09-11T05:26:34;18.02;;;10.65;;
19651;SDS011;9974;52.146;14.668;2022-09-11T05:29:03;21.77;;;11.63;;
19651;SDS011;9974;52.146;14.668;2022-09-11T05:31:31;24.65;;;12.95;;
19651;SDS011;9974;52.146;14.668;2022-09-11T05:33:57;29.15;;;14.68;;
19651;SDS011;9974;52.146;14.668;2022-09-11T05:36:25;25.27;;;14.35;;
19651;SDS011;9974;52.146;14.668;2022-09-11T05:38:51;27.85;;;14.90;;
19651;SDS011;9974;52.146;14.668;2022-09-11T05:41:17;25.88;;;14.15;;
19651;SDS011;9974;52.146;14.668;2022-09-11T05:43:43;39.13;;;21.33;;
19651;SDS011;9974;52.146;14.668;2022-09-11T05:46:11;45.90;;;23.45;;
19651;SDS011;9974;52.146;14.668;2022-09-11T05:48:39;37.55;;;20.60;;
19651;SDS011;9974;52.146;14.668;2022-09-11T05:51:10;26.92;;;15.55;;
19651;SDS011;9974;52.146;14.668;2022-09-11T05:53:38;26.35;;;16.63;;
19651;SDS011;9974;52.146;14.668;2022-09-11T05:56:23;30.23;;;15.82;;
19651;SDS011;9974;52.146;14.668;2022-09-11T05:58:49;27.20;;;14.05;;
19651;SDS011;9974;52.146;14.668;2022-09-11T06:01:16;18.00;;;13.82;;
19651;SDS011;9974;52.146;14.668;2022-09-11T06:03:44;17.88;;;11.95;;
19651;SDS011;9974;52.146;14.668;2022-09-11T06:06:12;18.58;;;12.32;;
19651;SDS011;9974;52.146;14.668;2022-09-11T06:08:38;20.25;;;12.68;;
19651;SDS011;9974;52.146;14.668;2022-09-11T06:11:08;15.88;;;10.88;;
19651;SDS011;9974;52.146;14.668;2022-09-11T06:13:38;17.83;;;11.10;;
19651;SDS011;9974;52.146;14.668;2022-09-11T06:16:08;19.90;;;12.32;;
19651;SDS011;9974;52.146;14.668;2022-09-11T06:18:42;20.25;;;11.88;;
19651;SDS011;9974;52.146;14.668;2022-09-11T06:21:12;29.60;;;15.20;;
19651;SDS011;9974;52.146;14.668;2022-09-11T06:23:39;26.20;;;15.88;;
19651;SDS011;9974;52.146;14.668;2022-09-11T06:26:09;30.55;;;18.27;;
19651;SDS011;9974;52.146;14.668;2022-09-11T06:28:37;35.85;;;20.80;;
19651;SDS011;9974;52.146;14.668;2022-09-11T06:31:03;43.10;;;24.35;;
19651;SDS011;9974;52.146;14.668;2022-09-11T06:33:32;53.50;;;32.78;;
19651;SDS011;9974;52.146;14.668;2022-09-11T06:36:03;50.22;;;32.13;;
19651;SDS011;9974;52.146;14.668;2022-09-11T06:38:31;52.78;;;29.45;;
19651;SDS011;9974;52.146;14.668;2022-09-11T06:41:00;41.08;;;25.58;;
19651;SDS011;9974;52.146;14.668;2022-09-11T06:43:27;41.08;;;25.35;;
19651;SDS011;9974;52.146;14.668;2022-09-11T06:45:53;42.15;;;26.60;;
19651;SDS011;9974;52.146;14.668;2022-09-11T06:48:19;36.38;;;23.80;;
19651;SDS011;9974;52.146;14.668;2022-09-11T06:50:45;30.98;;;20.80;;
19651;SDS011;9974;52.146;14.668;2022-09-11T06:53:12;30.30;;;20.63;;
19651;SDS011;9974;52.146;14.668;2022-09-11T06:55:39;32.30;;;21.27;;
19651;SDS011;9974;52.146;14.668;2022-09-11T06:58:05;31.88;;;20.88;;
19651;SDS011;9974;52.146;14.668;2022-09-11T07:00:33;39.67;;;23.05;;
19651;SDS011;9974;52.146;14.668;2022-09-11T07:03:00;40.72;;;24.48;;
19651;SDS011;9974;52.146;14.668;2022-09-11T07:05:27;37.22;;;23.15;;
19651;SDS011;9974;52.146;14.668;2022-09-11T07:07:54;38.60;;;22.05;;
19651;SDS011;9974;52.146;14.668;2022-09-11T07:10:21;33.28;;;20.95;;
19651;SDS011;9974;52.146;14.668;2022-09-11T07:12:47;32.22;;;19.02;;
19651;SDS011;9974;52.146;14.668;2022-09-11T07:15:13;26.60;;;18.25;;
19651;SDS011;9974;52.146;14.668;2022-09-11T07:17:39;32.97;;;19.42;;
19651;SDS011;9974;52.146;14.668;2022-09-11T07:20:05;25.13;;;17.00;;
19651;SDS011;9974;52.146;14.668;2022-09-11T07:22:33;26.50;;;16.15;;
19651;SDS011;9974;52.146;14.668;2022-09-11T07:24:59;25.55;;;15.85;;
19651;SDS011;9974;52.146;14.668;2022-09-11T07:27:25;28.90;;;17.30;;
19651;SDS011;9974;52.146;14.668;2022-09-11T07:29:52;31.67;;;17.20;;
19651;SDS011;9974;52.146;14.668;2022-09-11T07:32:18;29.35;;;18.23;;
19651;SDS011;9974;52.146;14.668;2022-09-11T07:34:44;26.30;;;17.35;;
19651;SDS011;9974;52.146;14.668;2022-09-11T07:37:11;24.50;;;16.55;;
19651;SDS011;9974;52.146;14.668;2022-09-11T07:39:38;27.65;;;16.90;;
19651;SDS011;9974;52.146;14.668;2022-09-11T07:42:04;28.30;;;16.70;;
19651;SDS011;9974;52.146;14.668;2022-09-11T07:44:33;26.77;;;16.73;;
19651;SDS011;9974;52.146;14.668;2022-09-11T07:46:59;27.05;;;16.25;;
19651;SDS011;9974;52.146;14.668;2022-09-11T07:49:25;26.23;;;16.17;;
19651;SDS011;9974;52.146;14.668;2022-09-11T07:51:52;24.75;;;16.73;;
19651;SDS011;9974;52.146;14.668;2022-09-11T07:54:18;26.05;;;16.00;;
19651;SDS011;9974;52.146;14.668;2022-09-11T07:56:45;22.88;;;15.82;;
19651;SDS011;9974;52.146;14.668;2022-09-11T07:59:11;26.48;;;15.70;;
19651;SDS011;9974;52.146;14.668;2022-09-11T08:01:37;24.52;;;15.45;;
19651;SDS011;9974;52.146;14.668;2022-09-11T08:04:05;22.92;;;16.25;;
19651;SDS011;9974;52.146;14.668;2022-09-11T08:06:34;26.77;;;17.27;;
19651;SDS011;9974;52.146;14.668;2022-09-11T08:09:02;24.73;;;16.15;;
19651;SDS011;9974;52.146;14.668;2022-09-11T08:11:38;28.10;;;17.75;;
19651;SDS011;9974;52.146;14.668;2022-09-11T08:14:07;30.70;;;18.20;;
19651;SDS011;9974;52.146;14.668;2022-09-11T08:16:35;27.10;;;16.02;;
19651;SDS011;9974;52.146;14.668;2022-09-11T08:19:00;25.15;;;16.83;;
19651;SDS011;9974;52.146;14.668;2022-09-11T08:21:27;25.75;;;16.08;;
19651;SDS011;9974;52.146;14.668;2022-09-11T08:23:53;28.45;;;15.25;;
19651;SDS011;9974;52.146;14.668;2022-09-11T08:26:23;24.05;;;14.85;;
19651;SDS011;9974;52.146;14.668;2022-09-11T08:28:52;21.17;;;13.95;;
19651;SDS011;9974;52.146;14.668;2022-09-11T08:31:21;22.02;;;15.82;;
19651;SDS011;9974;52.146;14.668;2022-09-11T08:33:50;20.95;;;14.15;;
19651;SDS011;9974;52.146;14.668;2022-09-11T08:36:17;18.58;;;13.05;;
19651;SDS011;9974;52.146;14.668;2022-09-11T08:38:43;22.20;;;15.30;;
19651;SDS011;9974;52.146;14.668;2022-09-11T08:41:11;18.85;;;13.43;;
19651;SDS011;9974;52.146;14.668;2022-09-11T08:44:02;23.70;;;15.35;;
19651;SDS011;9974;52.146;14.668;2022-09-11T08:46:39;21.17;;;14.02;;
19651;SDS011;9974;52.146;14.668;2022-09-11T08:51:44;21.05;;;14.35;;
19651;SDS011;9974;52.146;14.668;2022-09-11T09:00:05;19.98;;;12.27;;
19651;SDS011;9974;52.146;14.668;2022-09-11T09:05:43;15.95;;;11.50;;
19651;SDS011;9974;52.146;14.668;2022-09-11T09:11:19;17.73;;;12.23;;
19651;SDS011;9974;52.146;14.668;2022-09-11T09:14:33;16.25;;;10.57;;
19651;SDS011;9974;52.146;14.668;2022-09-11T09:17:36;15.75;;;11.18;;
19651;SDS011;9974;52.146;14.668;2022-09-11T09:20:44;14.88;;;10.60;;
19651;SDS011;9974;52.146;14.668;2022-09-11T09:23:26;16.38;;;11.95;;
19651;SDS011;9974;52.146;14.668;2022-09-11T09:25:57;14.60;;;10.40;;
19651;SDS011;9974;52.146;14.668;2022-09-11T09:28:39;14.63;;;9.23;;
19651;SDS011;9974;52.146;14.668;2022-09-11T09:31:10;14.90;;;8.88;;
19651;SDS011;9974;52.146;14.668;2022-09-11T09:33:49;13.35;;;8.88;;
19651;SDS011;9974;52.146;14.668;2022-09-11T09:36:56;14.02;;;9.85;;
19651;SDS011;9974;52.146;14.668;2022-09-11T09:39:31;14.25;;;9.88;;
19651;SDS011;9974;52.146;14.668;2022-09-11T09:47:50;15.13;;;10.30;;
19651;SDS011;9974;52.146;14.668;2022-09-11T09:50:18;15.25;;;10.48;;
19651;SDS011;9974;52.146;14.668;2022-09-11T09:52:49;13.82;;;10.07;;
19651;SDS011;9974;52.146;14.668;2022-09-11T09:55:21;14.30;;;10.35;;
19651;SDS011;9974;52.146;14.668;2022-09-11T09:57:47;15.02;;;10.27;;
19651;SDS011;9974;52.146;14.668;2022-09-11T10:00:16;13.23;;;9.80;;
19651;SDS011;9974;52.146;14.668;2022-09-11T10:02:48;15.50;;;10.88;;
19651;SDS011;9974;52.146;14.668;2022-09-11T10:05:24;17.83;;;11.57;;
19651;SDS011;9974;52.146;14.668;2022-09-11T10:08:27;16.20;;;9.90;;
19651;SDS011;9974;52.146;14.668;2022-09-11T10:13:24;12.50;;;9.07;;
19651;SDS011;9974;52.146;14.668;2022-09-11T10:15:54;11.93;;;8.93;;
19651;SDS011;9974;52.146;14.668;2022-09-11T10:26:38;11.35;;;8.65;;
19651;SDS011;9974;52.146;14.668;2022-09-11T10:29:14;9.63;;;6.80;;
19651;SDS011;9974;52.146;14.668;2022-09-11T10:31:49;12.63;;;8.60;;
19651;SDS011;9974;52.146;14.668;2022-09-11T10:34:18;13.63;;;8.25;;
19651;SDS011;9974;52.146;14.668;2022-09-11T10:36:57;12.82;;;7.65;;
19651;SDS011;9974;52.146;14.668;2022-09-11T10:39:27;13.48;;;8.73;;
19651;SDS011;9974;52.146;14.668;2022-09-11T10:41:56;12.32;;;8.60;;
19651;SDS011;9974;52.146;14.668;2022-09-11T10:44:26;11.00;;;7.88;;
19651;SDS011;9974;52.146;14.668;2022-09-11T10:47:04;10.10;;;7.07;;
19651;SDS011;9974;52.146;14.668;2022-09-11T10:49:40;9.95;;;6.90;;
19651;SDS011;9974;52.146;14.668;2022-09-11T11:00:22;10.50;;;7.75;;
19651;SDS011;9974;52.146;14.668;2022-09-11T11:14:18;11.00;;;7.63;;
19651;SDS011;9974;52.146;14.668;2022-09-11T11:17:26;12.40;;;6.55;;
19651;SDS011;9974;52.146;14.668;2022-09-11T11:20:26;9.15;;;5.10;;
19651;SDS011;9974;52.146;14.668;2022-09-11T11:34:24;7.80;;;5.03;;
19651;SDS011;9974;52.146;14.668;2022-09-11T11:37:22;7.63;;;5.18;;
19651;SDS011;9974;52.146;14.668;2022-09-11T11:40:02;8.63;;;4.68;;
19651;SDS011;9974;52.146;14.668;2022-09-11T11:43:10;6.95;;;4.72;;
19651;SDS011;9974;52.146;14.668;2022-09-11T11:45:52;7.38;;;4.05;;
19651;SDS011;9974;52.146;14.668;2022-09-11T11:48:23;6.72;;;3.95;;
19651;SDS011;9974;52.146;14.668;2022-09-11T11:50:53;6.72;;;3.80;;
19651;SDS011;9974;52.146;14.668;2022-09-11T11:53:31;8.75;;;3.95;;
19651;SDS011;9974;52.146;14.668;2022-09-11T11:58:55;8.55;;;4.25;;
19651;SDS011;9974;52.146;14.668;2022-09-11T12:01:35;5.72;;;2.78;;
19651;SDS011;9974;52.146;14.668;2022-09-11T12:04:22;5.32;;;3.25;;
19651;SDS011;9974;52.146;14.668;2022-09-11T12:06:58;7.95;;;3.40;;
19651;SDS011;9974;52.146;14.668;2022-09-11T12:09:36;5.32;;;3.53;;
19651;SDS011;9974;52.146;14.668;2022-09-11T12:12:03;5.10;;;3.17;;
19651;SDS011;9974;52.146;14.668;2022-09-11T12:14:31;7.75;;;4.50;;
19651;SDS011;9974;52.146;14.668;2022-09-11T12:17:14;6.63;;;4.35;;
19651;SDS011;9974;52.146;14.668;2022-09-11T12:22:37;4.40;;;3.22;;
19651;SDS011;9974;52.146;14.668;2022-09-11T12:32:44;5.93;;;3.28;;
19651;SDS011;9974;52.146;14.668;2022-09-11T12:40:32;5.20;;;3.50;;
19651;SDS011;9974;52.146;14.668;2022-09-11T12:43:26;6.18;;;3.83;;
19651;SDS011;9974;52.146;14.668;2022-09-11T12:45:55;6.13;;;3.65;;
19651;SDS011;9974;52.146;14.668;2022-09-11T12:51:19;5.47;;;3.38;;
19651;SDS011;9974;52.146;14.668;2022-09-11T12:53:50;4.65;;;3.15;;
19651;SDS011;9974;52.146;14.668;2022-09-11T12:56:20;6.90;;;3.80;;
19651;SDS011;9974;52.146;14.668;2022-09-11T12:58:52;5.03;;;3.03;;
19651;SDS011;9974;52.146;14.668;2022-09-11T13:01:32;4.28;;;3.00;;
19651;SDS011;9974;52.146;14.668;2022-09-11T13:04:05;7.10;;;3.97;;
19651;SDS011;9974;52.146;14.668;2022-09-11T13:09:26;6.38;;;3.40;;
19651;SDS011;9974;52.146;14.668;2022-09-11T13:11:58;5.47;;;3.38;;
19651;SDS011;9974;52.146;14.668;2022-09-11T13:14:50;5.63;;;2.80;;
19651;SDS011;9974;52.146;14.668;2022-09-11T13:17:22;5.50;;;3.33;;
19651;SDS011;9974;52.146;14.668;2022-09-11T13:19:54;4.65;;;2.92;;
19651;SDS011;9974;52.146;14.668;2022-09-11T13:22:41;5.20;;;3.50;;
19651;SDS011;9974;52.146;14.668;2022-09-11T13:25:12;5.15;;;2.85;;
19651;SDS011;9974;52.146;14.668;2022-09-11T13:27:43;5.13;;;3.25;;
19651;SDS011;9974;52.146;14.668;2022-09-11T13:30:16;5.20;;;3.22;;
19651;SDS011;9974;52.146;14.668;2022-09-11T13:32:45;5.82;;;3.05;;
19651;SDS011;9974;52.146;14.668;2022-09-11T13:35:30;3.92;;;2.92;;
19651;SDS011;9974;52.146;14.668;2022-09-11T13:38:01;4.97;;;2.95;;
19651;SDS011;9974;52.146;14.668;2022-09-11T13:40:44;4.78;;;2.78;;
19651;SDS011;9974;52.146;14.668;2022-09-11T13:43:31;4.65;;;2.95;;
19651;SDS011;9974;52.146;14.668;2022-09-11T13:48:45;5.45;;;2.80;;
19651;SDS011;9974;52.146;14.668;2022-09-11T13:51:14;4.70;;;3.05;;
19651;SDS011;9974;52.146;14.668;2022-09-11T13:53:44;4.68;;;2.92;;
19651;SDS011;9974;52.146;14.668;2022-09-11T14:02:22;5.53;;;3.17;;
19651;SDS011;9974;52.146;14.668;2022-09-11T14:15:36;4.40;;;2.90;;
19651;SDS011;9974;52.146;14.668;2022-09-11T14:18:10;7.40;;;2.97;;
19651;SDS011;9974;52.146;14.668;2022-09-11T14:20:48;6.45;;;3.20;;
19651;SDS011;9974;52.146;14.668;2022-09-11T14:23:19;5.45;;;2.60;;
19651;SDS011;9974;52.146;14.668;2022-09-11T14:26:07;6.45;;;2.92;;
19651;SDS011;9974;52.146;14.668;2022-09-11T14:31:12;2.95;;;2.28;;
19651;SDS011;9974;52.146;14.668;2022-09-11T14:34:01;3.83;;;2.58;;
19651;SDS011;9974;52.146;14.668;2022-09-11T14:36:32;3.78;;;2.45;;
19651;SDS011;9974;52.146;14.668;2022-09-11T14:39:06;3.67;;;2.60;;
19651;SDS011;9974;52.146;14.668;2022-09-11T14:41:48;5.93;;;2.80;;
19651;SDS011;9974;52.146;14.668;2022-09-11T14:44:15;4.10;;;2.45;;
19651;SDS011;9974;52.146;14.668;2022-09-11T14:46:41;3.58;;;2.22;;
19651;SDS011;9974;52.146;14.668;2022-09-11T14:49:08;4.25;;;2.03;;
19651;SDS011;9974;52.146;14.668;2022-09-11T14:51:37;2.47;;;1.80;;
19651;SDS011;9974;52.146;14.668;2022-09-11T14:54:04;4.10;;;2.20;;
19651;SDS011;9974;52.146;14.668;2022-09-11T14:56:31;3.65;;;1.98;;
19651;SDS011;9974;52.146;14.668;2022-09-11T14:58:57;7.10;;;2.00;;
19651;SDS011;9974;52.146;14.668;2022-09-11T15:01:22;3.90;;;1.80;;
19651;SDS011;9974;52.146;14.668;2022-09-11T15:03:50;5.90;;;2.85;;
19651;SDS011;9974;52.146;14.668;2022-09-11T15:06:17;6.28;;;2.65;;
19651;SDS011;9974;52.146;14.668;2022-09-11T15:08:44;2.75;;;1.80;;
19651;SDS011;9974;52.146;14.668;2022-09-11T15:11:11;6.00;;;2.20;;
19651;SDS011;9974;52.146;14.668;2022-09-11T15:13:37;5.95;;;2.03;;
19651;SDS011;9974;52.146;14.668;2022-09-11T15:16:03;8.77;;;3.85;;
19651;SDS011;9974;52.146;14.668;2022-09-11T15:18:29;5.15;;;2.28;;
19651;SDS011;9974;52.146;14.668;2022-09-11T15:20:58;6.93;;;1.80;;
19651;SDS011;9974;52.146;14.668;2022-09-11T15:23:23;3.78;;;1.88;;
19651;SDS011;9974;52.146;14.668;2022-09-11T15:25:55;4.00;;;2.10;;
19651;SDS011;9974;52.146;14.668;2022-09-11T15:28:27;4.78;;;2.40;;
19651;SDS011;9974;52.146;14.668;2022-09-11T15:30:54;3.75;;;2.13;;
19651;SDS011;9974;52.146;14.668;2022-09-11T15:33:28;2.60;;;1.85;;
19651;SDS011;9974;52.146;14.668;2022-09-11T15:36:00;4.75;;;2.42;;
19651;SDS011;9974;52.146;14.668;2022-09-11T15:38:29;6.53;;;2.58;;
19651;SDS011;9974;52.146;14.668;2022-09-11T15:40:56;5.82;;;2.33;;
19651;SDS011;9974;52.146;14.668;2022-09-11T15:43:22;3.00;;;1.75;;
19651;SDS011;9974;52.146;14.668;2022-09-11T15:45:49;2.85;;;1.98;;
19651;SDS011;9974;52.146;14.668;2022-09-11T15:48:15;6.25;;;2.15;;
19651;SDS011;9974;52.146;14.668;2022-09-11T15:50:42;7.05;;;3.67;;
19651;SDS011;9974;52.146;14.668;2022-09-11T15:53:08;8.50;;;3.00;;
19651;SDS011;9974;52.146;14.668;2022-09-11T15:55:34;5.47;;;2.92;;
19651;SDS011;9974;52.146;14.668;2022-09-11T15:58:00;4.53;;;2.83;;
19651;SDS011;9974;52.146;14.668;2022-09-11T16:00:26;6.07;;;2.65;;
19651;SDS011;9974;52.146;14.668;2022-09-11T16:02:53;7.13;;;2.97;;
19651;SDS011;9974;52.146;14.668;2022-09-11T16:05:20;3.70;;;2.50;;
19651;SDS011;9974;52.146;14.668;2022-09-11T16:07:47;4.68;;;2.80;;
19651;SDS011;9974;52.146;14.668;2022-09-11T16:10:13;3.03;;;2.30;;
19651;SDS011;9974;52.146;14.668;2022-09-11T16:12:39;5.13;;;2.65;;
19651;SDS011;9974;52.146;14.668;2022-09-11T16:15:05;6.05;;;2.95;;
19651;SDS011;9974;52.146;14.668;2022-09-11T16:17:31;7.05;;;2.75;;
19651;SDS011;9974;52.146;14.668;2022-09-11T16:19:57;4.22;;;2.33;;
19651;SDS011;9974;52.146;14.668;2022-09-11T16:22:23;3.92;;;2.67;;
19651;SDS011;9974;52.146;14.668;2022-09-11T16:24:50;4.15;;;2.67;;
19651;SDS011;9974;52.146;14.668;2022-09-11T16:27:16;4.63;;;2.50;;
19651;SDS011;9974;52.146;14.668;2022-09-11T16:29:43;6.53;;;3.55;;
19651;SDS011;9974;52.146;14.668;2022-09-11T16:32:09;4.85;;;2.63;;
19651;SDS011;9974;52.146;14.668;2022-09-11T16:34:35;4.03;;;2.50;;
19651;SDS011;9974;52.146;14.668;2022-09-11T16:37:01;4.30;;;1.90;;
19651;SDS011;9974;52.146;14.668;2022-09-11T16:39:27;4.78;;;2.40;;
19651;SDS011;9974;52.146;14.668;2022-09-11T16:41:53;5.80;;;2.40;;
19651;SDS011;9974;52.146;14.668;2022-09-11T16:44:19;4.18;;;2.30;;
19651;SDS011;9974;52.146;14.668;2022-09-11T16:46:46;5.10;;;2.40;;
19651;SDS011;9974;52.146;14.668;2022-09-11T16:49:16;4.25;;;2.20;;
19651;SDS011;9974;52.146;14.668;2022-09-11T16:51:43;5.05;;;2.78;;
19651;SDS011;9974;52.146;14.668;2022-09-11T16:54:11;7.55;;;3.08;;
19651;SDS011;9974;52.146;14.668;2022-09-11T16:56:37;4.40;;;2.67;;
19651;SDS011;9974;52.146;14.668;2022-09-11T16:59:03;5.03;;;3.60;;
19651;SDS011;9974;52.146;14.668;2022-09-11T17:01:29;3.88;;;2.53;;
19651;SDS011;9974;52.146;14.668;2022-09-11T17:03:55;4.35;;;2.70;;
19651;SDS011;9974;52.146;14.668;2022-09-11T17:06:23;4.55;;;2.72;;
19651;SDS011;9974;52.146;14.668;2022-09-11T17:08:53;20.05;;;9.25;;
19651;SDS011;9974;52.146;14.668;2022-09-11T17:11:20;24.38;;;11.40;;